Date,TemperatureHighF,TemperatureAvgF,TemperatureLowF,DewpointHighF,DewpointAvgF,DewpointLowF,HumidityHigh,HumidityAvg,HumidityLow,PressureMaxIn,PressureMinIn,WindSpeedMaxMPH,WindSpeedAvgMPH,GustSpeedMaxMPH,PrecipitationSumIn
2013-1-1,31.9,26.7,20.2,28.4,20.9,12.6,87,78,69,30.13,29.99,3,1,6,0.00
2013-1-2,23.3,17.2,11.6,13.3,10.5,6.9,85,75,63,30.26,30.10,4,0,5,0.00
2013-1-3,30.4,19.2,5.6,21.9,12.7,1.3,86,76,57,30.25,30.13,5,1,9,0.00
2013-1-4,30.6,27.2,24.5,21.5,17.5,15.6,78,67,54,30.25,30.13,5,3,16,0.00
2013-1-5,35.2,29.1,22.7,25.2,20.9,16.5,78,71,60,30.37,30.12,2,1,6,0.01
2013-1-6,36.5,33.9,30.3,30.8,27.5,25.2,87,77,70,30.24,29.96,6,2,13,0.08
2013-1-7,35.3,30.9,27.5,26.0,24.2,22.1,85,76,61,30.45,30.24,3,1,8,0.01
2013-1-8,41.3,30.4,22.2,59.5,23.4,18.9,88,75,50,30.33,30.24,2,0,4,0.06
2013-1-9,45.5,37.7,29.3,36.8,30.2,25.4,87,75,60,30.48,30.17,6,1,11,0.42
2013-1-10,40.6,33.3,24.5,30.9,26.8,21.7,92,78,60,30.61,30.23,2,0,3,0.04
2013-1-11,54.8,47.2,38.3,51.0,41.6,26.4,94,82,58,30.23,29.83,4,1,6,0.56
2013-1-12,60.2,54.0,47.3,53.4,50.6,45.1,95,89,75,30.00,29.83,2,0,5,0.01
2013-1-13,64.0,56.8,37.9,57.0,51.9,35.8,95,84,75,29.99,29.70,7,2,11,0.25
2013-1-14,37.8,30.3,26.1,35.7,24.0,19.2,93,77,67,30.44,29.99,5,2,7,0.00
2013-1-15,32.7,28.5,24.5,22.4,20.4,18.9,81,72,60,30.41,30.10,3,0,5,0.00
2013-1-16,35.6,31.7,28.5,24.4,22.5,20.9,79,69,57,30.10,29.89,4,1,8,0.00
2013-1-17,36.0,33.1,26.7,27.8,24.0,15.7,77,69,59,30.24,30.00,7,2,13,0.00
2013-1-18,33.2,26.7,18.9,19.2,14.3,7.4,73,59,48,30.50,30.14,7,2,11,0.00
2013-1-19,49.8,42.6,32.8,28.0,23.7,19.4,60,48,37,30.14,29.71,6,3,11,0.00
2013-1-20,46.5,29.3,20.3,32.2,15.4,8.8,62,56,46,30.18,29.67,10,5,17,0.00
2013-1-21,21.9,17.3,8.4,14.3,7.9,0.0,82,66,52,30.17,29.97,7,2,18,0.00
2013-1-22,10.7,7.5,4.3,3.0,-1.6,-5.3,80,66,50,30.33,30.13,6,2,14,0.00
2013-1-23,16.1,10.5,4.1,9.8,2.4,-3.3,83,70,56,30.34,30.11,4,1,7,0.00
2013-1-24,21.3,14.6,9.5,12.1,5.9,1.6,86,69,44,30.60,30.10,4,1,8,0.00
2013-1-25,18.9,15.4,10.4,14.1,9.6,4.9,85,78,66,30.55,30.07,2,0,6,0.00
2013-1-26,27.3,22.1,17.8,20.5,15.5,11.7,88,76,63,30.47,30.10,5,1,9,0.00
2013-1-27,31.6,22.7,9.3,22.5,14.4,5.5,87,71,55,30.56,30.26,3,1,8,0.00
2013-1-28,47.1,39.7,29.3,45.7,37.6,21.8,95,92,73,30.28,29.95,2,1,6,0.61
2013-1-29,60.2,52.7,46.4,54.9,50.2,45.0,96,91,74,30.02,29.62,4,1,7,0.09
2013-1-30,63.1,56.2,35.6,55.5,50.0,31.5,93,80,68,29.62,29.13,8,2,14,0.44
2013-1-31,35.3,25.3,17.2,31.5,16.9,6.7,89,70,57,29.90,29.28,9,5,18,0.02
2013-2-1,17.2,14.9,12.1,9.7,5.8,3.3,77,67,59,30.34,29.89,8,4,14,0.00
2013-2-2,23.8,17.9,11.9,19.4,12.4,3.6,87,79,65,30.33,29.99,3,1,6,0.00
2013-2-3,23.9,19.6,15.9,18.4,13.3,9.7,88,76,58,30.05,29.89,5,2,11,0.00
2013-2-4,25.4,21.0,16.2,20.4,15.8,9.9,88,80,73,30.07,29.88,3,0,7,0.00
2013-2-5,30.1,25.5,22.4,22.7,20.0,17.0,89,80,60,29.96,29.86,3,0,7,0.00
2013-2-6,31.0,26.1,19.2,24.5,16.3,11.1,88,68,43,30.34,29.95,4,1,8,0.12
2013-2-7,43.5,30.9,18.3,28.4,21.6,12.3,81,69,51,30.31,29.87,2,1,6,0.12
2013-2-8,39.9,31.7,25.3,35.8,26.9,19.8,91,82,72,30.25,29.72,8,4,14,0.27
2013-2-9,34.3,26.7,21.3,20.4,17.8,15.2,80,69,49,30.44,30.25,5,1,8,0.01
2013-2-10,48.5,34.2,19.5,33.1,20.2,14.4,85,60,32,30.34,29.81,4,1,6,0.01
2013-2-11,51.7,42.1,33.4,43.4,32.8,21.6,90,70,56,29.92,29.65,9,4,17,0.00
2013-2-12,37.3,32.1,26.1,24.7,22.7,20.8,85,68,57,30.09,29.92,5,2,11,0.00
2013-2-13,34.3,28.1,23.0,24.6,22.6,19.4,89,80,64,29.94,29.75,3,0,6,0.00
2013-2-14,37.9,32.0,22.9,33.8,27.9,19.6,90,85,68,29.90,29.81,7,2,10,0.01
2013-2-15,36.5,31.4,24.7,27.8,22.9,19.1,82,71,61,30.10,29.89,5,2,10,0.00
2013-2-16,29.8,24.6,19.4,19.5,14.3,6.4,86,66,40,30.08,29.96,3,1,6,0.00
2013-2-17,23.9,17.2,10.7,15.7,8.5,3.7,87,69,46,30.28,29.99,6,2,11,0.04
2013-2-18,46.2,26.9,6.3,30.6,14.9,1.9,85,62,43,30.29,29.74,4,1,10,0.02
2013-2-19,47.7,31.9,17.3,37.8,25.1,10.3,89,76,50,29.99,29.58,9,4,16,0.18
2013-2-20,22.4,19.1,15.7,14.5,10.6,6.2,80,69,52,30.25,29.99,7,3,13,0.00
2013-2-21,24.7,20.2,17.8,15.9,13.0,10.1,85,73,58,30.38,30.22,4,1,6,0.01
2013-2-22,38.3,30.0,19.4,36.1,25.2,13.1,92,82,71,30.31,29.94,3,1,8,0.02
2013-2-23,38.3,34.2,30.3,30.4,26.5,22.7,84,73,58,29.98,29.88,4,1,7,0.00
2013-2-24,32.8,30.0,26.9,24.0,21.3,17.8,76,70,62,30.15,29.89,5,2,10,0.00
2013-2-25,43.9,32.1,21.8,26.6,22.1,18.5,90,68,42,30.23,30.07,3,0,4,0.00
2013-2-26,37.5,33.0,26.9,35.7,28.0,20.3,93,82,64,30.09,29.51,5,2,8,1.00
2013-2-27,41.8,37.5,32.7,37.9,34.9,30.4,94,90,81,29.64,29.48,3,1,10,0.31
2013-2-28,34.6,32.8,30.6,31.2,29.0,26.0,91,86,81,29.88,29.58,5,2,13,0.03
2013-3-1,30.6,27.7,25.7,26.4,22.7,20.4,88,81,73,30.04,29.88,4,2,12,0.00
2013-3-2,28.4,25.8,23.9,21.9,20.3,18.0,85,79,69,30.01,29.98,4,2,6,0.00
2013-3-3,28.1,24.0,21.6,21.2,17.8,14.7,85,77,66,30.05,29.98,5,2,11,0.01
2013-3-4,36.5,25.5,14.9,22.3,17.1,11.5,88,72,48,30.15,30.05,4,1,6,0.03
2013-3-5,44.1,30.2,16.9,24.2,18.8,13.7,90,66,33,30.12,29.67,4,1,6,0.00
2013-3-6,45.1,37.9,30.9,29.1,27.1,25.2,85,66,50,30.17,29.70,3,1,6,0.00
2013-3-7,39.2,33.6,29.1,30.7,28.5,23.7,88,82,67,30.36,30.16,5,2,8,0.00
2013-3-8,36.6,30.4,25.1,28.1,24.6,21.9,89,79,66,30.47,30.36,3,1,7,0.00
2013-3-9,55.9,38.4,21.1,32.4,26.1,18.4,92,65,37,30.45,30.09,3,0,7,0.00
2013-3-10,69.1,57.1,45.2,36.5,32.0,26.9,59,40,26,30.09,29.84,4,1,8,0.00
2013-3-11,61.5,52.6,41.5,48.4,41.2,32.4,91,69,34,29.85,29.54,4,2,11,0.80
2013-3-12,41.5,36.6,33.5,36.4,29.3,24.6,87,75,65,29.98,29.73,4,2,11,0.01
2013-3-13,33.7,29.8,26.6,27.5,22.6,16.8,85,74,56,30.17,29.91,9,3,14,0.00
2013-3-14,39.6,30.0,22.4,21.5,18.8,15.8,76,64,42,30.24,30.13,6,2,14,0.02
2013-3-15,44.3,35.9,28.1,34.4,27.7,20.9,90,72,62,30.12,29.84,4,1,8,0.04
2013-3-16,36.9,33.0,29.1,35.3,30.4,24.0,94,90,81,30.01,29.67,3,1,6,0.10
2013-3-17,35.2,30.5,26.9,25.5,22.1,18.3,85,71,54,30.22,30.02,3,1,5,0.00
2013-3-18,44.8,34.6,26.6,43.5,30.7,18.2,95,86,69,30.18,29.60,5,2,8,0.47
2013-3-19,41.1,31.6,26.9,37.8,22.0,16.3,88,68,54,29.97,29.68,8,4,16,0.01
2013-3-20,31.2,27.4,21.3,20.5,17.4,12.4,80,66,53,29.97,29.89,6,2,14,0.00
2013-3-21,29.0,22.6,15.1,23.3,14.9,8.3,86,72,61,29.93,29.89,5,2,10,0.00
2013-3-22,35.9,28.4,24.4,22.5,20.0,18.6,85,71,54,30.02,29.92,5,2,9,0.02
2013-3-23,44.6,31.0,20.6,26.6,21.6,17.4,90,70,44,30.07,30.00,3,1,7,0.00
2013-3-24,35.9,30.0,23.2,23.1,20.9,19.4,88,70,53,30.03,29.50,4,1,8,0.00
2013-3-25,35.9,33.1,31.5,33.8,30.3,22.9,93,90,64,29.82,29.43,3,1,7,0.20
2013-3-26,41.5,34.7,31.3,33.0,30.1,28.1,93,84,62,30.09,29.82,5,2,11,0.03
2013-3-27,45.1,37.0,32.1,30.6,28.2,25.5,90,72,48,30.16,30.08,7,3,12,0.01
2013-3-28,45.1,38.7,34.1,29.7,27.2,25.2,77,63,50,30.26,30.15,5,2,12,0.00
2013-3-29,51.7,41.4,31.6,29.3,24.4,16.1,79,53,30,30.27,30.18,5,1,11,0.00
2013-3-30,58.7,41.7,25.1,27.4,22.8,19.2,87,52,26,30.25,29.97,4,1,7,0.00
2013-3-31,52.0,45.5,38.2,43.9,33.4,21.6,80,63,44,29.97,29.67,4,1,8,0.01
2013-4-1,46.5,37.8,31.9,39.3,21.5,8.8,83,54,27,30.06,29.65,7,3,13,0.00
2013-4-2,41.8,32.3,23.8,19.4,14.1,7.4,72,48,26,30.20,30.06,7,3,13,0.00
2013-4-3,38.5,31.5,24.2,20.1,13.8,9.0,65,49,32,30.44,30.20,7,2,13,0.00
2013-4-4,57.8,37.2,19.5,18.8,12.6,7.6,82,43,15,30.41,29.95,2,0,6,0.00
2013-4-5,48.9,39.5,29.8,31.4,21.8,13.5,65,50,34,30.21,29.90,5,2,8,0.00
2013-4-6,57.8,41.6,23.3,22.2,15.3,11.2,80,41,17,30.28,29.91,3,1,8,0.00
2013-4-7,74.7,59.8,46.0,44.8,33.7,12.9,67,39,20,29.98,29.76,7,3,17,0.00
2013-4-8,72.1,55.8,36.0,52.0,42.5,31.9,87,63,40,30.01,29.80,5,2,10,0.00
2013-4-9,80.7,65.6,47.0,54.6,48.5,40.9,81,56,38,30.07,29.82,5,2,12,0.00
2013-4-10,74.4,61.2,47.7,63.3,53.1,45.5,94,76,50,29.90,29.74,7,1,10,0.92
2013-4-11,51.9,48.7,44.6,49.6,46.8,43.2,95,93,88,29.87,29.55,2,0,5,0.25
2013-4-12,57.0,45.9,39.5,55.6,41.9,32.7,95,86,70,29.84,29.42,3,0,5,0.31
2013-4-13,44.2,40.3,33.5,36.0,32.2,26.8,82,73,60,30.02,29.84,7,2,10,0.00
2013-4-14,59.6,44.7,29.4,39.0,32.3,25.7,90,64,41,30.14,29.96,3,0,8,0.00
2013-4-15,71.1,59.2,44.5,49.9,44.0,35.7,77,58,41,30.02,29.92,4,1,9,0.00
2013-4-16,72.1,59.4,49.1,59.6,51.6,46.9,92,76,62,30.16,29.92,4,1,13,0.19
2013-4-17,67.8,56.4,45.7,52.8,44.8,38.1,94,69,39,30.27,30.02,2,0,5,0.00
2013-4-18,85.9,71.9,59.5,60.5,55.6,50.7,83,60,31,30.02,29.62,5,2,12,0.00
2013-4-19,72.1,54.0,39.6,59.7,42.8,27.9,90,67,48,29.84,29.33,7,3,18,0.28
2013-4-20,44.2,38.1,32.4,31.1,26.5,22.1,84,64,42,30.42,29.84,6,3,14,0.05
2013-4-21,52.8,39.9,27.5,28.3,24.7,20.5,89,59,29,30.61,30.42,3,1,6,0.00
2013-4-22,68.6,49.9,30.3,37.8,30.3,24.9,86,51,27,30.46,30.18,3,1,6,0.00
2013-4-23,74.4,58.9,42.6,42.1,34.2,25.4,64,41,25,30.19,29.84,4,1,8,0.00
2013-4-24,62.1,48.1,35.0,53.5,42.7,32.6,92,83,45,30.15,29.69,7,1,13,0.69
2013-4-25,54.1,40.9,30.9,41.2,33.1,28.6,93,76,41,30.34,30.15,6,1,8,0.04
2013-4-26,62.0,46.0,30.0,37.3,29.0,24.4,93,58,25,30.47,30.34,3,0,6,0.01
2013-4-27,75.4,55.4,34.1,39.0,32.5,29.4,89,49,20,30.38,30.07,3,1,8,0.00
2013-4-28,56.5,52.8,46.4,54.2,47.1,33.9,93,82,48,30.07,29.85,2,0,5,0.50
2013-4-29,67.8,59.6,55.0,57.3,53.1,51.0,94,80,56,29.96,29.84,3,0,5,0.17
2013-4-30,78.1,63.1,47.7,56.0,51.0,45.5,94,68,37,30.07,29.96,3,1,10,0.00
2013-5-1,83.2,67.7,53.1,56.0,51.0,47.2,85,58,33,30.22,30.07,3,1,8,0.00
2013-5-2,81.8,67.7,54.7,48.0,40.1,33.0,55,38,24,30.27,30.10,3,1,7,0.00
2013-5-3,80.9,67.4,55.3,44.3,38.2,31.5,57,36,20,30.16,30.02,4,1,11,0.00
2013-5-4,75.1,63.1,52.8,43.5,38.2,31.6,57,42,21,30.12,30.01,3,2,10,0.00
2013-5-5,77.7,63.4,49.2,42.6,35.2,23.9,72,39,16,30.07,29.94,4,1,9,0.00
2013-5-6,78.3,63.6,49.2,50.2,42.5,25.0,67,48,27,30.02,29.91,3,1,9,0.00
2013-5-7,74.7,63.7,55.1,57.5,52.1,47.8,85,67,39,29.99,29.90,2,0,6,0.00
2013-5-8,76.3,62.7,56.3,58.6,53.6,49.4,86,74,39,29.95,29.89,2,0,4,0.03
2013-5-9,82.6,66.1,53.9,57.2,47.8,35.0,93,60,21,29.95,29.88,3,0,6,0.03
2013-5-10,75.1,63.7,59.2,62.3,56.5,41.7,92,78,51,29.90,29.71,3,0,7,0.47
2013-5-11,60.5,49.7,45.1,58.2,46.1,42.7,93,88,73,29.87,29.71,5,0,8,0.13
2013-5-12,50.4,43.6,35.6,42.9,32.5,27.8,90,67,45,30.07,29.87,5,2,12,0.00
2013-5-13,54.7,43.2,34.6,32.0,26.8,19.8,78,56,26,30.16,30.06,4,1,10,0.00
2013-5-14,69.9,51.2,32.9,43.4,35.2,28.6,88,58,30,30.15,29.78,3,0,9,0.00
2013-5-15,87.0,68.7,53.5,60.9,51.1,39.6,83,56,30,29.81,29.65,6,1,16,0.00
2013-5-16,84.7,68.9,55.3,53.0,45.9,39.0,80,48,21,29.91,29.71,2,0,5,0.00
2013-5-17,84.5,65.0,48.5,58.5,47.6,42.1,86,57,28,30.07,29.92,2,0,5,0.00
2013-5-18,88.2,68.8,51.0,54.7,48.7,42.4,84,53,24,30.10,29.95,2,0,6,0.00
2013-5-19,85.7,71.7,60.2,64.9,60.1,52.5,90,69,44,30.01,29.87,2,0,8,0.00
2013-5-20,86.1,73.0,61.6,71.0,64.3,58.6,92,75,56,29.93,29.81,2,0,5,0.00
2013-5-21,87.6,76.1,67.8,67.3,64.9,62.2,90,70,46,29.84,29.71,2,0,6,0.00
2013-5-22,87.0,75.6,66.6,63.7,60.6,57.6,85,62,39,29.76,29.63,3,1,8,0.14
2013-5-23,71.8,60.7,42.6,63.6,55.9,39.6,92,85,65,29.99,29.67,4,1,8,0.13
2013-5-24,45.1,42.4,35.2,39.9,34.9,31.7,89,75,61,30.31,29.99,4,1,10,0.00
2013-5-25,63.4,46.8,30.6,40.0,32.9,28.0,94,64,30,30.36,30.25,3,1,8,0.00
2013-5-26,67.9,50.8,33.2,40.2,33.5,28.0,93,58,23,30.31,30.21,2,0,7,0.00
2013-5-27,57.5,49.9,37.5,50.9,43.2,34.7,91,78,52,30.25,30.03,1,0,2,0.12
2013-5-28,81.1,66.3,52.8,71.1,59.0,50.2,94,79,57,30.04,29.85,2,0,10,0.80
2013-5-29,88.0,77.0,68.6,65.4,60.3,57.5,73,58,38,29.98,29.87,3,0,7,0.00
2013-5-30,91.2,76.2,64.3,69.3,61.1,54.9,88,63,33,30.08,29.97,1,0,3,0.00
2013-5-31,89.0,73.0,62.7,73.4,63.9,59.1,93,75,43,30.00,29.87,5,0,13,0.00
2013-6-1,83.4,72.9,64.2,69.4,65.6,62.4,94,79,58,29.90,29.68,2,0,6,0.02
2013-6-2,77.2,69.3,63.1,67.8,60.7,55.1,94,76,52,29.85,29.68,3,1,7,0.51
2013-6-3,68.4,58.1,45.4,55.6,44.8,34.3,85,63,34,30.07,29.84,3,0,6,0.00
2013-6-4,74.0,56.7,41.3,50.0,42.8,39.1,94,65,32,30.15,30.06,2,0,7,0.00
2013-6-5,82.0,62.9,45.4,56.3,47.5,42.4,92,62,30,30.12,29.88,1,0,6,0.00
2013-6-6,63.5,58.9,54.7,61.7,55.8,47.3,95,90,62,29.88,29.76,1,0,8,1.47
2013-6-7,60.2,56.5,54.5,57.3,54.1,53.0,95,92,85,29.86,29.80,1,0,2,0.01
2013-6-8,72.5,61.7,56.0,57.9,54.3,50.9,93,78,51,30.06,29.86,1,0,3,0.00
2013-6-9,80.7,67.1,55.1,63.3,57.3,52.2,93,74,45,30.11,29.91,2,0,5,0.00
2013-6-10,71.3,67.7,64.3,69.5,64.4,60.6,94,89,80,29.91,29.69,1,0,2,0.45
2013-6-11,79.8,69.4,63.4,66.6,63.2,60.8,94,82,57,29.84,29.72,0,0,1,0.06
2013-6-12,80.7,72.0,64.5,70.2,65.6,61.3,92,81,61,29.85,29.59,0,0,1,0.01
2013-6-13,72.3,65.1,59.3,67.8,59.5,52.5,95,83,56,29.81,29.42,1,0,1,0.43
2013-6-14,73.7,62.2,53.8,59.4,54.7,49.8,93,77,57,30.04,29.81,1,0,1,0.00
2013-6-15,82.8,64.1,48.6,61.0,53.1,46.6,95,72,33,30.10,29.93,1,0,1,0.01
2013-6-16,82.4,69.0,62.7,68.5,63.4,58.6,93,83,58,29.93,29.80,1,0,3,0.52
2013-6-17,83.8,67.0,61.3,67.0,62.6,59.0,95,87,44,29.91,29.85,2,0,4,0.24
2013-6-18,78.8,66.2,56.9,65.2,58.5,49.8,94,78,55,29.96,29.83,1,0,2,0.00
2013-6-19,78.8,62.8,50.1,55.0,49.5,46.3,93,65,34,30.12,29.96,1,0,3,0.00
2013-6-20,84.0,64.6,48.2,58.3,51.8,45.7,94,68,34,30.19,30.12,1,0,4,0.00
2013-6-21,88.8,70.2,53.8,63.6,56.7,51.2,93,67,34,30.20,30.07,1,0,3,0.00
2013-6-22,90.7,75.8,61.2,72.1,64.1,57.9,91,69,46,30.09,29.97,1,0,8,0.00
2013-6-23,91.8,78.7,66.6,70.8,65.8,61.6,91,67,38,30.05,29.95,2,0,3,0.00
2013-6-24,91.2,77.4,64.3,68.9,64.2,60.5,90,66,37,30.05,29.91,2,0,6,0.00
2013-6-25,91.0,75.6,66.0,73.9,67.6,63.3,93,78,49,29.94,29.78,3,1,7,0.02
2013-6-26,83.4,72.7,66.3,72.7,67.7,64.2,94,85,63,29.87,29.72,2,0,6,0.71
2013-6-27,77.2,70.6,67.4,72.1,67.3,64.7,94,90,70,29.73,29.58,0,0,1,0.34
2013-6-28,81.1,68.4,62.3,68.0,63.4,58.3,94,85,57,29.58,29.44,0,0,1,0.05
2013-6-29,80.1,67.3,60.7,66.8,62.4,58.7,94,85,57,29.63,29.48,0,0,0,0.12
2013-6-30,78.6,68.3,61.3,67.1,63.1,59.5,95,84,66,29.83,29.63,0,0,0,0.01
2013-7-1,72.5,67.1,64.2,69.0,63.7,59.9,94,89,79,29.93,29.79,0,0,1,0.46
2013-7-2,84.0,70.3,62.1,70.1,64.7,60.6,95,84,57,29.99,29.90,0,0,0,0.00
2013-7-3,86.5,73.1,63.5,71.4,66.5,61.7,95,81,55,30.07,29.98,0,0,1,0.02
2013-7-4,78.1,72.4,68.9,70.7,67.8,65.4,94,86,70,30.11,30.04,0,0,0,0.08
2013-7-5,79.4,71.6,68.1,70.3,67.6,65.7,94,88,70,30.09,30.02,0,0,1,0.27
2013-7-6,86.5,74.3,67.8,73.4,68.5,65.7,94,83,57,30.09,29.93,0,0,1,0.50
2013-7-7,81.1,72.0,66.3,69.8,65.9,62.5,94,82,62,30.03,29.92,1,0,6,0.00
2013-7-8,87.0,72.4,62.6,72.0,65.2,59.6,94,80,52,30.04,29.96,1,0,3,0.01
2013-7-9,88.2,74.9,68.6,75.5,70.6,66.8,95,87,61,30.00,29.85,0,0,1,0.61
2013-7-10,86.5,72.7,67.3,77.8,70.1,65.8,95,92,70,29.89,29.70,1,0,3,2.54
2013-7-11,78.8,68.5,60.5,65.8,60.4,55.2,95,78,46,29.97,29.84,2,0,3,0.00
2013-7-12,80.9,67.6,56.0,66.1,59.2,54.0,95,77,42,30.06,29.97,0,0,0,0.00
2013-7-13,85.5,72.6,60.4,67.6,63.3,58.2,94,75,50,30.14,30.04,0,0,0,0.00
2013-7-14,90.1,76.1,64.8,74.6,68.4,62.7,95,79,49,30.20,30.13,0,0,1,0.00
2013-7-15,92.5,78.7,69.6,76.2,71.0,67.4,94,79,48,30.25,30.16,1,0,1,0.00
2013-7-16,89.0,78.0,71.3,78.9,73.1,69.2,94,85,60,30.25,30.16,1,0,3,0.13
2013-7-17,93.4,80.5,72.0,76.8,72.3,69.8,94,78,49,30.22,30.08,0,0,1,0.00
2013-7-18,93.4,81.5,72.5,76.8,72.6,70.3,94,76,51,30.10,29.92,0,0,1,0.00
2013-7-19,92.7,81.8,74.2,75.2,71.7,68.6,89,73,49,29.93,29.75,1,0,2,0.00
2013-7-20,79.0,73.2,67.6,71.8,68.8,65.8,94,86,72,29.86,29.72,2,0,3,0.83
2013-7-21,82.4,73.7,67.6,70.6,67.2,63.6,95,81,60,29.90,29.83,0,0,1,0.00
2013-7-22,75.8,68.3,63.4,71.4,65.3,61.3,94,90,82,29.90,29.71,0,0,0,0.05
2013-7-23,82.8,70.5,62.4,71.8,66.0,60.6,95,86,66,29.73,29.59,0,0,0,0.22
2013-7-24,73.0,64.4,54.4,61.0,54.7,51.0,89,72,49,29.99,29.72,0,0,0,0.00
2013-7-25,79.9,62.9,49.8,56.5,51.6,47.8,95,71,35,30.06,29.98,0,0,0,0.00
2013-7-26,82.6,66.1,51.7,62.2,54.9,49.7,95,71,39,30.06,29.90,0,0,0,0.00
2013-7-27,67.9,64.9,61.6,64.7,61.6,57.7,93,89,81,29.90,29.75,0,0,1,0.19
2013-7-28,71.5,62.8,54.5,60.4,53.7,47.9,92,74,49,29.97,29.80,0,0,0,0.01
2013-7-29,71.5,62.1,52.6,59.2,54.5,49.9,94,77,48,30.14,29.97,0,0,0,0.00
2013-7-30,79.9,65.3,53.2,62.1,57.0,51.2,95,77,43,30.20,30.09,0,0,0,0.00
2013-7-31,76.8,65.2,59.3,65.5,60.8,57.3,94,86,62,30.10,29.87,0,0,0,0.01
2013-8-1,82.6,70.0,60.7,66.0,62.1,57.4,94,78,44,29.87,29.78,0,0,1,0.07
2013-8-2,73.2,65.5,57.5,63.4,58.5,55.2,93,79,55,29.94,29.84,0,0,0,0.01
2013-8-3,80.7,69.8,59.5,65.8,60.0,51.0,93,74,39,29.95,29.85,0,0,1,0.09
2013-8-4,74.4,63.3,56.9,58.5,55.9,53.6,94,78,49,30.07,29.94,0,0,1,0.07
2013-8-5,73.3,63.3,54.8,62.6,56.0,50.8,93,79,47,30.09,29.95,0,0,0,0.00
2013-8-6,83.0,68.1,56.7,65.1,58.4,54.7,94,74,41,29.98,29.88,0,0,0,0.00
2013-8-7,77.7,68.5,61.5,70.4,64.5,58.0,94,87,73,29.91,29.83,0,0,1,0.69
2013-8-8,84.3,74.6,69.8,73.9,70.2,66.5,94,87,65,29.89,29.83,1,0,1,0.00
2013-8-9,81.2,70.2,59.9,66.6,61.8,53.9,93,77,46,29.97,29.83,0,0,0,0.01
2013-8-10,81.1,67.6,58.3,66.0,59.3,55.7,94,76,49,30.05,29.96,0,0,0,0.00
2013-8-11,82.2,72.6,61.6,65.8,60.2,55.7,93,67,46,30.08,29.98,0,0,0,0.00
2013-8-12,80.9,69.5,59.2,67.9,62.9,57.2,94,81,55,30.01,29.77,0,0,1,0.01
2013-8-13,73.5,66.1,53.3,66.8,58.8,47.6,93,78,58,29.94,29.73,0,0,1,0.00
2013-8-14,70.6,58.3,51.4,55.8,51.0,48.0,89,78,47,30.13,29.95,0,0,1,0.00
2013-8-15,74.4,59.4,47.9,56.6,50.8,46.0,95,76,42,30.17,30.08,0,0,1,0.00
2013-8-16,79.0,62.8,52.2,60.4,54.8,50.2,94,78,42,30.15,30.09,0,0,1,0.00
2013-8-17,81.1,65.1,52.9,61.9,55.7,50.9,94,74,40,30.21,30.13,0,0,0,0.00
2013-8-18,76.5,64.9,54.2,64.9,58.9,52.2,94,82,63,30.18,30.07,0,0,1,0.00
2013-8-19,84.1,68.7,60.5,63.5,60.6,57.0,94,78,42,30.09,30.00,0,0,1,0.00
2013-8-20,87.2,69.9,58.0,65.4,60.0,55.7,94,74,36,30.13,30.04,0,0,0,0.00
2013-8-21,88.8,71.9,58.6,67.2,61.8,56.6,95,74,38,30.14,29.98,0,0,1,0.00
2013-8-22,84.9,72.7,64.3,72.7,66.7,61.9,93,82,58,30.01,29.90,1,0,5,0.23
2013-8-23,84.9,72.2,58.1,66.5,60.4,50.6,94,70,34,30.11,29.93,0,0,0,0.00
2013-8-24,67.1,62.8,59.9,56.9,56.3,55.7,86,80,68,30.25,30.23,0,0,0,0.00
2013-8-25,87.4,68.4,53.2,64.0,57.2,51.0,95,72,37,30.30,30.16,0,0,0,0.00
2013-8-26,86.5,73.9,61.2,67.4,61.9,56.9,89,68,43,30.16,29.93,0,0,0,0.00
2013-8-27,78.6,73.9,70.6,73.1,69.0,65.9,93,85,75,29.98,29.83,0,0,3,0.70
2013-8-28,77.7,73.7,69.1,71.9,70.2,66.7,93,89,80,29.90,29.75,1,0,4,0.05
2013-8-29,88.4,74.8,67.9,70.6,67.8,63.7,94,81,44,29.99,29.89,0,0,1,0.00
2013-8-30,89.0,74.4,62.4,70.5,65.5,60.3,95,76,45,29.95,29.73,0,0,1,0.00
2013-8-31,87.2,75.4,68.6,72.2,68.3,65.8,93,80,52,29.77,29.64,1,0,1,0.00
2013-9-1,84.0,74.1,68.1,72.7,68.4,66.0,94,83,58,29.75,29.67,1,0,1,0.03
2013-9-2,79.8,70.3,62.7,72.0,66.6,59.6,94,88,70,29.79,29.67,1,0,1,0.13
2013-9-3,64.8,61.1,55.1,59.6,56.0,52.2,92,84,73,30.00,29.79,2,0,5,0.00
2013-9-4,80.9,64.1,51.3,61.2,55.2,49.3,95,76,44,30.08,29.99,0,0,0,0.00
2013-9-5,73.7,63.8,51.0,59.3,53.9,43.9,89,73,35,30.19,29.99,0,0,0,0.00
2013-9-6,78.1,58.6,44.3,54.1,47.1,40.4,95,71,26,30.26,30.08,0,0,0,0.00
2013-9-7,81.6,64.2,48.9,67.0,56.1,46.7,94,77,46,30.08,29.86,0,0,0,0.00
2013-9-8,76.7,66.7,56.2,65.5,61.4,52.5,93,84,58,30.02,29.84,0,0,0,0.00
2013-9-9,79.2,64.6,50.2,71.6,60.5,48.2,94,87,70,30.04,29.92,0,0,0,0.00
2013-9-10,97.1,81.1,69.8,74.6,70.1,66.8,91,72,40,30.00,29.92,0,0,0,0.00
2013-9-11,93.4,80.2,72.0,72.9,70.2,66.5,91,73,43,30.03,29.88,0,0,1,0.00
2013-9-12,73.9,67.9,59.2,69.4,65.0,57.2,93,91,84,29.90,29.76,0,0,1,0.82
2013-9-13,59.2,56.2,51.3,57.5,52.6,46.7,95,88,75,30.04,29.81,0,0,0,0.08
2013-9-14,68.8,54.9,46.7,50.5,46.2,42.9,90,75,44,30.14,30.03,0,0,0,0.00
2013-9-15,66.6,55.7,44.6,55.9,49.4,42.7,95,81,53,30.15,30.03,0,0,0,0.02
2013-9-16,68.1,58.7,49.8,57.6,53.3,47.0,95,83,59,30.29,30.06,0,0,0,0.05
2013-9-17,72.3,54.3,41.1,51.8,45.8,39.2,95,76,38,30.39,30.21,0,0,0,0.00
2013-9-18,73.2,57.6,44.3,60.9,51.4,42.3,95,81,54,30.22,30.04,0,0,0,0.00
2013-9-19,77.2,67.3,59.0,65.8,61.8,56.4,92,83,65,30.07,29.95,0,0,0,0.00
2013-9-20,83.6,71.8,64.3,70.6,65.9,61.6,93,83,62,29.95,29.72,0,0,0,0.20
2013-9-21,68.6,65.6,56.5,99.9,64.3,53.6,94,93,85,29.74,29.60,1,0,3,1.46
2013-9-22,58.1,54.9,51.7,49.3,47.4,45.0,90,76,63,30.01,29.93,1,0,1,0.00
2013-9-23,58.7,52.1,44.5,85.8,46.5,42.0,91,79,60,30.14,30.01,0,0,0,0.00
2013-9-24,70.3,51.1,38.0,54.2,44.6,36.4,95,81,45,30.14,29.95,0,0,0,0.00
2013-9-25,73.5,54.9,41.3,58.0,46.3,0.0,95,77,40,29.96,29.84,0,0,0,0.00
2013-9-26,76.0,55.4,44.9,55.3,42.1,0.0,95,68,39,30.10,29.90,0,0,0,0.00
2013-9-27,74.9,58.5,47.0,53.8,49.1,43.4,93,76,44,30.18,30.08,0,0,0,0.00
2013-9-28,77.6,59.8,47.0,59.1,52.1,45.3,95,78,43,30.21,30.05,0,0,0,0.00
2013-9-29,74.4,57.5,51.6,61.4,52.7,49.2,94,85,58,30.05,29.94,0,0,0,0.00
2013-9-30,64.8,61.7,56.2,60.3,58.2,53.9,93,88,83,29.98,29.92,0,0,1,0.01
2013-10-1,78.6,62.8,53.3,64.1,56.3,51.6,95,81,50,30.03,29.92,0,0,0,0.00
2013-10-2,81.2,66.5,57.2,67.8,60.8,54.7,94,83,58,30.04,29.96,0,0,0,0.00
2013-10-3,80.7,65.9,58.7,71.1,62.4,56.7,95,89,65,30.02,29.94,0,0,1,0.35
2013-10-4,79.2,71.2,63.2,68.4,66.2,61.7,95,85,63,30.02,29.96,2,0,1,0.01
2013-10-5,74.6,70.4,64.5,69.5,67.3,63.0,95,90,75,30.00,29.88,1,0,5,0.10
2013-10-6,80.1,70.3,55.9,67.7,64.6,53.0,95,83,58,29.88,29.62,3,0,6,0.33
2013-10-7,58.4,54.0,49.9,53.6,46.5,42.8,92,76,58,30.10,29.68,3,0,6,0.67
2013-10-8,68.4,53.5,43.3,50.8,45.0,41.1,95,76,40,30.27,30.10,0,0,1,0.00
2013-10-9,70.3,52.5,40.2,50.0,43.9,38.3,95,76,39,30.31,30.20,0,0,1,0.00
2013-10-10,66.9,48.8,40.3,51.5,43.9,38.4,95,85,53,30.22,30.10,0,0,0,0.00
2013-10-11,75.6,62.7,42.2,55.9,51.0,40.6,95,69,38,30.12,30.00,1,0,1,0.00
2013-10-12,75.1,60.0,47.9,63.7,55.1,46.2,95,85,60,30.10,30.01,0,0,1,0.00
2013-10-13,68.3,62.0,57.3,61.4,57.8,52.2,92,86,75,30.24,30.06,0,0,3,0.00
2013-10-14,68.9,56.0,45.1,52.7,48.2,42.0,93,77,49,30.32,30.19,2,0,2,0.00
2013-10-15,64.3,53.7,41.3,58.7,50.6,39.4,94,89,79,30.22,29.90,1,0,1,0.01
2013-10-16,67.4,60.2,48.2,62.2,57.6,45.8,95,91,80,29.90,29.74,0,0,1,0.87
2013-10-17,58.4,48.5,41.2,49.7,45.1,39.3,95,89,60,29.89,29.75,0,0,1,0.18
2013-10-18,61.5,51.0,40.6,46.7,43.0,38.2,94,76,50,29.96,29.84,0,0,1,0.01
2013-10-19,49.6,44.9,40.6,45.4,41.7,37.9,93,89,79,29.89,29.72,1,0,1,0.22
2013-10-20,60.2,47.5,37.9,42.7,38.4,35.2,91,73,44,29.95,29.89,1,0,1,0.22
2013-10-21,64.7,52.7,42.3,48.1,41.0,37.5,91,67,40,29.96,29.80,0,0,1,0.10
2013-10-22,51.4,42.9,34.3,47.6,33.1,26.8,92,70,42,29.95,29.82,1,0,1,0.06
2013-10-23,44.5,38.4,33.7,40.9,33.4,30.5,93,82,63,29.91,29.76,1,0,1,0.10
2013-10-24,45.2,36.7,31.0,32.5,30.5,27.9,90,79,57,30.13,29.90,1,0,2,0.00
2013-10-25,48.8,39.0,32.8,34.9,31.4,27.7,91,76,47,30.32,30.14,1,0,1,0.00
2013-10-26,45.5,40.2,34.9,37.8,28.8,25.4,90,64,49,30.20,29.84,1,0,1,0.01
2013-10-27,50.1,40.6,32.8,38.1,33.5,30.6,95,78,50,30.07,29.96,3,0,5,0.05
2013-10-28,57.3,41.6,29.8,41.5,34.9,27.8,94,79,47,30.31,30.06,0,0,1,0.05
2013-10-29,58.6,42.7,30.4,41.5,35.2,28.6,95,78,43,30.39,30.23,1,0,3,0.00
2013-10-30,66.8,49.7,37.2,50.2,42.1,34.2,93,77,50,30.22,30.05,2,0,3,0.00
2013-10-31,65.2,59.9,57.6,57.8,56.4,52.8,92,88,74,29.99,29.27,4,1,8,0.63
2013-11-1,60.1,53.4,48.6,57.5,46.5,41.2,91,78,63,29.66,29.19,5,2,10,0.24
2013-11-2,49.6,46.1,42.2,44.0,42.0,40.0,92,86,75,29.99,29.64,3,1,6,0.05
2013-11-3,47.0,39.5,30.0,40.0,33.1,25.2,94,79,52,30.45,29.99,1,0,5,0.00
2013-11-4,45.8,36.1,27.3,29.7,24.6,21.9,87,65,39,30.52,30.36,3,0,7,0.00
2013-11-5,61.0,48.7,38.6,42.4,36.4,28.1,76,63,48,30.40,30.25,1,0,5,0.00
2013-11-6,66.0,54.4,41.9,56.3,44.0,34.5,92,69,52,30.24,29.85,5,1,10,0.32
2013-11-7,52.0,41.7,38.5,49.2,35.1,26.2,94,78,55,30.11,29.88,5,2,13,0.18
2013-11-8,41.2,37.3,32.7,32.5,29.2,25.9,87,73,56,30.27,30.08,4,2,8,0.00
2013-11-9,57.8,54.6,51.6,39.6,35.8,30.7,62,49,40,29.94,29.87,4,2,13,0.00
2013-11-10,51.6,43.9,35.8,39.1,31.9,27.3,74,63,52,30.27,29.90,7,2,14,0.00
2013-11-11,47.1,41.6,30.9,38.2,31.9,29.1,93,71,50,30.18,30.00,4,2,11,0.08
2013-11-12,32.9,29.8,27.6,29.1,25.1,21.3,93,83,66,30.49,30.18,5,1,6,0.04
2013-11-13,36.3,30.9,25.8,22.5,19.8,16.4,80,64,44,30.54,30.29,4,1,7,0.00
2013-11-14,49.5,38.5,28.1,23.4,20.4,18.2,71,50,29,30.28,30.09,4,1,7,0.02
2013-11-15,52.6,44.4,36.8,30.7,24.0,19.4,62,45,28,30.12,30.05,4,1,7,0.00
2013-11-16,59.5,49.2,36.5,49.5,41.3,30.1,86,74,61,30.16,29.89,3,1,7,0.00
2013-11-17,61.2,57.4,51.7,56.6,52.4,41.1,93,84,65,29.88,29.38,7,2,14,0.93
2013-11-18,51.6,43.3,35.8,40.8,33.0,25.2,77,67,59,30.08,29.53,7,4,22,0.00
2013-11-19,38.5,34.2,25.3,26.0,23.7,20.9,83,65,54,30.41,30.08,4,2,12,0.00
2013-11-20,46.4,33.3,21.3,25.4,18.7,14.7,92,60,28,30.46,30.30,3,1,7,0.00
2013-11-21,43.2,40.5,37.3,39.9,31.6,16.3,92,73,42,30.36,30.18,1,0,3,0.07
2013-11-22,49.6,43.6,35.2,48.2,41.3,29.0,95,91,78,30.29,30.08,6,1,10,0.11
2013-11-23,35.0,28.2,19.2,28.8,20.7,5.0,89,74,51,30.41,30.21,7,3,11,0.00
2013-11-24,23.8,20.2,17.5,12.1,8.1,4.5,72,59,51,30.57,30.41,7,3,19,0.00
2013-11-25,33.5,25.6,16.2,26.1,13.3,10.4,80,61,43,30.49,30.17,3,1,7,0.00
2013-11-26,34.3,32.0,30.3,29.5,28.2,26.4,93,86,79,30.17,29.82,2,0,3,0.00
2013-11-27,31.6,27.0,23.3,29.8,20.9,12.5,93,78,62,30.14,29.78,6,2,18,0.00
2013-11-28,28.1,23.8,16.5,20.2,16.0,9.6,79,72,57,30.41,30.15,4,1,5,0.00
2013-11-29,33.1,24.3,14.9,21.8,17.3,11.7,89,75,56,30.66,30.41,1,0,3,0.01
2013-11-30,38.8,30.6,23.8,25.9,21.8,17.6,82,70,57,30.60,30.17,3,1,6,0.03
2013-12-1,40.8,34.7,28.1,29.8,27.6,23.9,87,76,63,30.17,29.94,1,0,4,0.12
2013-12-2,38.9,34.9,31.3,33.8,30.6,28.2,90,84,74,29.95,29.85,1,0,2,0.02
2013-12-3,50.1,39.2,31.0,40.3,34.3,28.1,90,83,68,29.90,29.83,1,0,4,0.01
2013-12-4,58.4,49.2,38.3,48.5,42.7,35.0,91,79,67,29.93,29.74,2,0,6,0.00
2013-12-5,60.4,51.5,33.1,54.9,44.4,29.9,91,77,63,30.08,29.71,6,2,11,0.03
2013-12-6,33.2,30.4,26.4,30.8,27.1,23.3,91,87,72,30.32,30.06,4,1,7,0.01
2013-12-7,26.4,23.1,18.4,23.3,15.5,11.5,88,73,59,30.61,30.33,4,1,11,0.00
2013-12-8,28.5,23.5,16.9,24.9,17.0,12.0,86,76,60,30.60,30.02,3,1,8,0.00
2013-12-9,33.8,30.7,25.0,31.9,25.3,16.6,93,81,68,30.15,29.92,5,2,11,0.01
2013-12-10,26.0,22.9,20.0,17.0,11.4,6.4,72,61,43,30.27,30.02,5,2,11,0.00
2013-12-11,24.8,20.0,16.9,19.2,13.0,8.1,86,74,62,30.42,30.26,5,2,10,0.00
2013-12-12,18.8,14.2,7.4,10.2,2.9,-2.7,79,61,39,30.50,30.26,5,2,11,0.00
2013-12-13,30.4,23.7,17.7,17.3,11.3,2.1,74,59,49,30.27,30.19,3,1,7,0.00
2013-12-14,32.5,28.5,24.2,31.0,25.6,16.8,94,89,72,30.23,29.65,1,0,3,0.00
2013-12-15,32.7,23.0,14.1,31.2,18.9,8.2,94,84,74,30.06,29.65,5,2,11,0.00
2013-12-16,23.5,17.5,10.7,18.4,10.1,6.0,86,73,58,30.20,30.02,2,0,3,0.00
2013-12-17,27.5,25.1,22.1,25.5,20.8,18.0,92,84,74,30.05,29.92,4,1,6,0.00
2013-12-18,29.0,25.8,23.2,21.5,18.8,15.5,84,75,63,30.16,30.00,3,1,7,0.00
2013-12-19,44.3,37.4,29.3,33.0,26.0,17.3,77,64,53,30.03,29.93,3,1,5,0.46
2013-12-20,54.4,46.3,40.6,52.2,40.8,30.5,94,82,60,29.93,29.76,3,1,5,0.49
2013-12-21,56.0,48.4,41.1,54.6,46.8,39.8,96,94,91,29.77,29.47,4,1,5,1.09
2013-12-22,60.4,52.0,41.8,59.0,46.5,38.4,97,82,57,29.93,29.38,6,0,7,0.52
2013-12-23,41.9,33.5,27.6,38.5,26.4,17.8,91,75,63,30.30,29.94,5,1,10,0.01
2013-12-24,27.6,18.9,14.9,20.8,11.4,6.7,85,72,64,30.56,30.27,5,2,10,0.00
2013-12-25,27.6,20.4,11.9,19.1,12.1,7.9,85,70,57,30.53,30.17,3,1,7,0.00
2013-12-26,31.2,28.0,22.1,25.8,20.5,15.4,85,73,58,30.33,30.09,5,2,10,0.00
2013-12-27,41.1,34.4,24.5,29.3,24.9,18.3,78,68,61,30.34,30.18,4,1,6,0.03
2013-12-28,51.0,42.7,36.5,33.6,29.9,27.3,71,61,47,30.17,29.97,3,1,8,0.00
2013-12-29,42.6,39.1,29.0,39.1,31.2,25.6,92,74,55,29.97,29.69,3,0,6,0.22
2013-12-30,28.8,22.5,19.5,26.2,16.0,9.2,90,76,57,30.25,29.92,5,2,8,0.00
2013-12-31,23.0,19.4,16.9,18.6,12.7,7.8,86,75,62,30.32,30.07,6,2,12,0.00
2014-1-1,25.3,21.3,18.8,19.4,17.0,14.6,88,83,77,30.34,30.18,1,0,1,0.00
2014-1-2,20.6,16.8,12.1,17.1,13.0,7.9,88,84,80,30.10,29.83,1,0,1,0.00